createdAt,value
2023-05-24T00:00:12.733Z,101963.06
2023-05-24T00:02:43.031Z,101949.25
2023-05-24T00:05:10.948Z,101945.25
2023-05-24T00:07:38.355Z,101944.06
2023-05-24T00:10:06.310Z,101937.44
2023-05-24T00:12:33.233Z,101935.25
2023-05-24T00:15:00.181Z,101934.38
2023-05-24T00:17:27.621Z,101941.75
2023-05-24T00:19:54.462Z,101937.00
2023-05-24T00:22:21.718Z,101932.53
2023-05-24T00:24:48.791Z,101933.81
2023-05-24T00:27:16.160Z,101931.22
2023-05-24T00:29:43.100Z,101924.66
2023-05-24T00:32:10.031Z,101932.34
2023-05-24T00:34:36.862Z,101913.16
2023-05-24T00:37:07.691Z,101907.56
2023-05-24T00:39:34.393Z,101914.91
2023-05-24T00:42:01.123Z,101896.78
2023-05-24T00:44:31.355Z,101896.72
2023-05-24T00:46:58.578Z,101902.53
2023-05-24T00:49:25.630Z,101883.69
2023-05-24T00:51:54.086Z,101884.94
2023-05-24T00:54:21.116Z,101884.09
2023-05-24T00:56:48.404Z,101877.06
2023-05-24T00:59:15.282Z,101875.56
2023-05-24T01:01:42.904Z,101870.28
2023-05-24T01:04:09.724Z,101864.78
2023-05-24T01:06:47.822Z,101856.03
2023-05-24T01:09:25.983Z,101859.25
2023-05-24T01:12:12.473Z,101852.97
2023-05-24T01:14:57.959Z,101843.88
2023-05-24T01:17:37.538Z,101845.00
2023-05-24T01:20:11.123Z,101837.47
2023-05-24T01:23:28.952Z,101829.22
2023-05-24T01:26:13.803Z,101819.44
2023-05-24T01:28:43.277Z,101825.44
2023-05-24T01:31:12.736Z,101814.84
2023-05-24T01:33:42.862Z,101812.03
2023-05-24T01:36:09.819Z,101810.50
2023-05-24T01:38:37.929Z,101802.97
2023-05-24T01:41:13.119Z,101798.13
2023-05-24T01:43:48.731Z,101789.56
2023-05-24T01:46:38.044Z,101788.22
2023-05-24T01:49:20.619Z,101787.66
2023-05-24T01:52:08.570Z,101785.44
2023-05-24T01:54:38.985Z,101788.34
2023-05-24T01:57:08.999Z,101778.88
2023-05-24T01:59:37.983Z,101775.56
2023-05-24T02:02:05.039Z,101761.63
2023-05-24T02:04:32.037Z,101752.69
2023-05-24T02:06:58.730Z,101746.72
2023-05-24T02:09:25.429Z,101735.53
2023-05-24T02:11:52.175Z,101723.38
2023-05-24T02:14:19.835Z,101704.81
2023-05-24T02:16:47.332Z,101700.06
2023-05-24T02:19:14.646Z,101690.63
2023-05-24T02:21:41.468Z,101691.41
2023-05-24T02:24:11.241Z,101678.78
2023-05-24T02:26:38.743Z,101667.06
2023-05-24T02:29:08.043Z,101661.63
2023-05-24T02:31:34.796Z,101652.34
2023-05-24T02:34:01.666Z,101649.53
2023-05-24T02:36:28.459Z,101642.13
2023-05-24T02:38:55.132Z,101633.88
2023-05-24T02:41:22.201Z,101631.25
2023-05-24T02:43:48.964Z,101619.63
2023-05-24T02:46:15.959Z,101608.47
2023-05-24T02:48:42.734Z,101594.91
2023-05-24T02:51:09.481Z,101593.09
2023-05-24T02:53:36.278Z,101573.19
2023-05-24T02:56:02.962Z,101578.63
2023-05-24T02:58:30.465Z,101570.78
2023-05-24T03:00:57.174Z,101561.66
2023-05-24T03:03:24.580Z,101563.78
2023-05-24T03:05:51.374Z,101541.97
2023-05-24T03:08:18.060Z,101522.69
2023-05-24T03:10:47.593Z,101513.59
2023-05-24T03:13:14.430Z,101509.91
2023-05-24T03:15:41.196Z,101512.69
2023-05-24T03:18:07.967Z,101481.84
2023-05-24T03:20:34.777Z,101477.00
2023-05-24T03:23:01.709Z,101468.78
2023-05-24T03:25:28.564Z,101475.78
2023-05-24T03:27:55.462Z,101458.63
2023-05-24T03:30:22.149Z,101458.44
2023-05-24T03:32:48.969Z,101454.66
2023-05-24T03:35:15.675Z,101448.53
2023-05-24T03:37:42.449Z,101452.38
2023-05-24T03:40:09.533Z,101454.97
2023-05-24T03:42:36.509Z,101445.28
2023-05-24T03:45:03.904Z,101446.41
2023-05-24T03:47:33.255Z,101450.09
2023-05-24T03:50:00.016Z,101453.88
2023-05-24T03:52:26.995Z,101446.41
2023-05-24T03:54:53.827Z,101436.16
2023-05-24T03:57:20.671Z,101441.78
2023-05-24T03:59:47.370Z,101439.66
2023-05-24T04:02:14.614Z,101444.13
2023-05-24T04:04:41.575Z,101441.78
2023-05-24T04:07:11.939Z,101445.09
2023-05-24T04:09:38.683Z,101449.47
2023-05-24T04:12:06.817Z,101441.50
2023-05-24T04:14:33.543Z,101448.50
2023-05-24T04:17:02.402Z,101446.19
2023-05-24T04:19:29.640Z,101456.34
2023-05-24T04:21:57.672Z,101449.88
2023-05-24T04:24:24.344Z,101455.97
2023-05-24T04:26:51.697Z,101452.41
2023-05-24T04:29:18.926Z,101453.84
2023-05-24T04:31:45.835Z,101448.16
2023-05-24T04:34:14.323Z,101455.97
2023-05-24T04:36:41.444Z,101451.25
2023-05-24T04:39:08.204Z,101458.03
2023-05-24T04:41:38.688Z,101460.00
2023-05-24T04:44:05.586Z,101459.22
2023-05-24T04:46:36.100Z,101460.56
2023-05-24T04:49:03.075Z,101454.88
2023-05-24T04:51:29.820Z,101463.88
2023-05-24T04:53:56.601Z,101469.44
2023-05-24T04:56:23.302Z,101466.41
2023-05-24T04:58:50.268Z,101472.22
2023-05-24T05:01:16.991Z,101478.44
2023-05-24T05:03:46.062Z,101484.16
2023-05-24T05:06:12.879Z,101491.94
2023-05-24T05:08:39.640Z,101482.81
2023-05-24T05:11:06.449Z,101490.78
2023-05-24T05:13:33.251Z,101501.16
2023-05-24T05:15:59.959Z,101508.84
2023-05-24T05:18:26.667Z,101507.66
2023-05-24T05:20:53.415Z,101514.00
2023-05-24T05:23:20.127Z,101510.09
2023-05-24T05:25:46.812Z,101513.81
2023-05-24T05:28:13.744Z,101525.72
2023-05-24T05:30:40.634Z,101529.72
2023-05-24T05:33:07.594Z,101529.63
2023-05-24T05:35:34.406Z,101542.94
2023-05-24T05:38:01.506Z,101541.94
2023-05-24T05:40:28.225Z,101551.41
2023-05-24T05:42:54.955Z,101567.97
2023-05-24T05:45:21.744Z,101581.78
2023-05-24T05:47:48.548Z,101587.28
2023-05-24T05:50:15.470Z,101582.94
2023-05-24T05:52:42.222Z,101586.69
2023-05-24T05:55:09.371Z,101595.75
2023-05-24T05:57:36.091Z,101604.09
2023-05-24T06:00:03.759Z,101614.19
2023-05-24T06:02:33.427Z,101616.00
2023-05-24T06:05:00.462Z,101620.59
2023-05-24T06:07:27.260Z,101620.78
2023-05-24T06:09:57.309Z,101613.97
2023-05-24T06:12:24.008Z,101633.19
2023-05-24T06:14:50.769Z,101635.53
2023-05-24T06:17:18.579Z,101639.31
2023-05-24T06:19:45.732Z,101646.22
2023-05-24T06:22:12.727Z,101650.69
2023-05-24T06:24:40.022Z,101655.66
2023-05-24T06:27:06.770Z,101666.16
2023-05-24T06:29:33.512Z,101674.59
2023-05-24T06:32:00.329Z,101679.09
2023-05-24T06:34:27.437Z,101686.63
2023-05-24T06:36:54.131Z,101694.16
2023-05-24T06:39:21.004Z,101703.75
2023-05-24T06:41:48.235Z,101735.94
2023-05-24T06:44:16.392Z,101747.13
2023-05-24T06:46:43.270Z,101756.56
2023-05-24T06:49:10.130Z,101764.78
2023-05-24T06:51:38.111Z,101764.22
2023-05-24T06:54:04.895Z,101762.69
2023-05-24T06:56:35.661Z,101773.66
2023-05-24T06:59:02.544Z,101777.47
2023-05-24T07:01:29.700Z,101793.97
2023-05-24T07:03:56.523Z,101801.66
2023-05-24T07:06:23.288Z,101802.13
2023-05-24T07:08:50.104Z,101806.91
2023-05-24T07:11:16.953Z,101804.41
2023-05-24T07:13:43.729Z,101818.88
2023-05-24T07:16:11.733Z,101817.03
2023-05-24T07:18:38.867Z,101820.53
2023-05-24T07:21:05.568Z,101837.84
2023-05-24T07:23:32.507Z,101835.06
2023-05-24T07:26:01.602Z,101838.34
2023-05-24T07:28:28.358Z,101834.03
2023-05-24T07:30:55.175Z,101836.03
2023-05-24T07:33:22.062Z,101846.41
2023-05-24T07:35:51.717Z,101850.44
2023-05-24T07:38:18.983Z,101837.66
2023-05-24T07:40:45.812Z,101849.16
2023-05-24T07:43:12.777Z,101853.72
2023-05-24T07:45:39.575Z,101858.09
2023-05-24T07:48:06.747Z,101875.63
2023-05-24T07:50:33.589Z,101891.19
2023-05-24T07:53:00.441Z,101893.34
2023-05-24T07:55:28.109Z,101915.66
2023-05-24T07:57:54.948Z,101931.69
2023-05-24T08:00:21.888Z,101932.19
2023-05-24T08:02:48.868Z,101930.25
2023-05-24T08:05:16.956Z,101932.75
2023-05-24T08:07:43.897Z,101944.69
2023-05-24T08:10:12.750Z,101967.78
2023-05-24T08:12:42.509Z,101975.38
2023-05-24T08:15:09.932Z,101982.69
2023-05-24T08:17:38.880Z,101999.25
2023-05-24T08:20:09.849Z,102007.03
2023-05-24T08:22:37.728Z,102021.16
2023-05-24T08:25:05.052Z,102027.38
2023-05-24T08:27:31.914Z,102042.56
2023-05-24T08:29:59.037Z,102065.81
2023-05-24T08:32:25.923Z,102073.16
2023-05-24T08:34:58.140Z,102069.72
2023-05-24T08:37:35.154Z,102097.06
2023-05-24T08:40:01.900Z,102099.28
2023-05-24T08:42:29.315Z,102094.31
2023-05-24T08:45:08.427Z,102107.75
2023-05-24T08:47:36.903Z,102115.16
2023-05-24T08:50:05.380Z,102135.78
2023-05-24T08:52:32.946Z,102136.03
2023-05-24T08:55:00.171Z,102138.78
2023-05-24T08:57:27.790Z,102150.72
2023-05-24T08:59:56.213Z,102154.94
2023-05-24T09:02:23.743Z,102167.69
2023-05-24T09:04:53.108Z,102172.28
2023-05-24T09:07:24.698Z,102180.06
2023-05-24T09:10:01.328Z,102187.59
2023-05-24T09:12:37.328Z,102202.03
2023-05-24T09:15:06.945Z,102190.75
2023-05-24T09:17:35.636Z,102198.38
2023-05-24T09:20:06.939Z,102195.28
2023-05-24T09:22:35.776Z,102206.06
2023-05-24T09:25:05.855Z,102195.97
2023-05-24T09:27:35.647Z,102221.16
2023-05-24T09:30:05.424Z,102227.09
2023-05-24T09:32:33.230Z,102237.97
2023-05-24T09:35:00.154Z,102244.06
2023-05-24T09:37:32.127Z,102241.47
2023-05-24T09:40:00.071Z,102246.81
2023-05-24T09:42:31.176Z,102257.34
2023-05-24T09:45:06.836Z,102263.91
2023-05-24T09:47:35.104Z,102267.44
2023-05-24T09:50:03.466Z,102275.34
2023-05-24T09:52:34.054Z,102263.78
2023-05-24T09:55:15.614Z,102271.88
2023-05-24T09:57:50.839Z,102265.00
2023-05-24T10:00:27.188Z,102264.34
2023-05-24T10:03:06.796Z,102246.53
2023-05-24T10:05:35.122Z,102252.13
2023-05-24T10:08:05.033Z,102252.63
2023-05-24T10:10:33.446Z,102251.84
2023-05-24T10:13:01.648Z,102225.59
2023-05-24T10:15:29.711Z,102231.22
2023-05-24T10:17:58.112Z,102230.31
2023-05-24T10:20:25.312Z,102225.88
2023-05-24T10:22:59.370Z,102233.50
2023-05-24T10:25:29.992Z,102236.16
2023-05-24T10:28:10.356Z,102262.38
2023-05-24T10:31:26.917Z,102271.03
2023-05-24T10:36:47.856Z,102280.34
2023-05-24T10:39:21.512Z,102262.41
2023-05-24T10:41:48.489Z,102222.03
2023-05-24T10:41:49.918Z,102283.91
2023-05-24T10:44:19.336Z,102212.13
2023-05-24T10:47:10.555Z,102213.84
2023-05-24T10:49:38.995Z,102227.69
2023-05-24T10:52:10.286Z,102209.00
2023-05-24T10:54:39.874Z,102214.75
2023-05-24T10:57:08.781Z,102229.63
2023-05-24T10:59:38.849Z,102205.47
2023-05-24T11:02:14.150Z,102218.38
2023-05-24T11:04:43.556Z,102199.97
2023-05-24T11:07:11.604Z,102178.38
2023-05-24T11:09:52.817Z,102235.75
2023-05-24T11:12:23.794Z,102260.31
2023-05-24T11:14:53.847Z,102246.78
2023-05-24T11:17:23.207Z,102278.25
2023-05-24T11:19:52.986Z,102277.16
2023-05-24T11:22:22.452Z,102304.28
2023-05-24T11:24:49.285Z,102257.47
2023-05-24T11:27:16.476Z,102263.91
2023-05-24T11:29:45.232Z,102234.25
2023-05-24T11:32:20.566Z,102222.84
2023-05-24T11:34:48.260Z,102199.13
2023-05-24T11:37:18.060Z,102201.25
2023-05-24T11:39:51.505Z,102205.38
2023-05-24T11:42:18.418Z,102224.63
2023-05-24T11:44:48.618Z,102192.63
2023-05-24T11:47:15.363Z,102207.03
2023-05-24T11:49:42.051Z,102218.38
2023-05-24T11:52:08.976Z,102255.31
2023-05-24T11:54:37.374Z,102241.28
2023-05-24T11:57:05.559Z,102207.09
2023-05-24T11:59:32.357Z,102194.59
2023-05-24T12:02:00.242Z,102198.22
2023-05-24T12:04:29.232Z,102174.72
2023-05-24T12:06:56.482Z,102197.53
2023-05-24T12:09:23.759Z,102227.50
2023-05-24T12:11:51.656Z,102221.44
2023-05-24T12:14:19.481Z,102233.78
2023-05-24T12:16:47.226Z,102227.38
2023-05-24T12:19:33.301Z,102209.50
2023-05-24T12:22:05.085Z,102211.09
2023-05-24T12:24:32.850Z,102186.25
2023-05-24T12:27:02.191Z,102231.91
2023-05-24T12:29:41.744Z,102202.50
2023-05-24T12:32:15.291Z,102184.13
2023-05-24T12:34:43.816Z,102171.34
2023-05-24T12:37:16.042Z,102197.13
2023-05-24T12:39:44.492Z,102220.47
2023-05-24T12:42:13.440Z,102231.19
2023-05-24T12:44:40.775Z,102255.13
2023-05-24T12:47:08.993Z,102234.97
2023-05-24T12:49:36.362Z,102241.38
2023-05-24T12:52:03.092Z,102236.81
2023-05-24T12:54:30.333Z,102257.09
2023-05-24T12:56:59.991Z,102249.97
2023-05-24T12:59:28.778Z,102219.97
2023-05-24T13:01:56.343Z,102177.00
2023-05-24T13:04:24.439Z,102205.66
2023-05-24T13:06:51.681Z,102222.06
2023-05-24T13:09:21.431Z,102242.47
2023-05-24T13:11:48.272Z,102263.28
2023-05-24T13:14:16.743Z,102269.94
2023-05-24T13:16:44.378Z,102184.72
2023-05-24T13:19:11.940Z,102181.53
2023-05-24T13:21:39.043Z,102184.09
2023-05-24T13:24:06.656Z,102164.38
2023-05-24T13:26:38.201Z,102138.84
2023-05-24T13:29:32.210Z,102169.41
2023-05-24T13:31:55.476Z,102124.66
2023-05-24T13:34:25.705Z,102178.88
2023-05-24T13:36:55.565Z,102201.13
2023-05-24T13:39:22.391Z,102190.44
2023-05-24T13:41:51.444Z,102203.25
2023-05-24T13:44:18.438Z,102234.81
2023-05-24T13:46:46.011Z,102234.56
2023-05-24T13:49:13.021Z,102261.25
2023-05-24T13:51:40.331Z,102260.06
2023-05-24T13:54:07.963Z,102250.47
2023-05-24T13:56:35.826Z,102233.34
2023-05-24T13:59:04.427Z,102201.84
2023-05-24T14:01:31.988Z,102174.44
2023-05-24T14:03:59.988Z,102148.44
2023-05-24T14:06:26.697Z,102160.84
2023-05-24T14:08:53.906Z,102176.44
2023-05-24T14:11:22.359Z,102223.47
2023-05-24T14:16:18.940Z,102246.34
2023-05-24T14:18:46.005Z,102221.66
2023-05-24T14:21:12.763Z,102225.91
2023-05-24T14:23:39.630Z,102253.25
2023-05-24T14:26:06.760Z,102198.22
2023-05-24T14:28:33.515Z,102235.59
2023-05-24T14:31:00.252Z,102152.31
2023-05-24T14:33:27.029Z,102201.88
2023-05-24T14:35:55.356Z,102209.03
2023-05-24T14:38:23.933Z,102223.16
2023-05-24T14:40:51.258Z,102260.72
2023-05-24T14:43:18.366Z,102282.06
2023-05-24T14:45:45.394Z,102266.72
2023-05-24T14:48:12.828Z,102250.25
2023-05-24T14:50:41.069Z,102247.25
2023-05-24T14:53:14.397Z,102191.72
2023-05-24T14:55:42.824Z,102196.28
2023-05-24T14:58:13.843Z,102201.41
2023-05-24T15:00:42.026Z,102191.00
2023-05-24T15:03:13.027Z,102193.75
2023-05-24T15:05:41.386Z,102200.72
2023-05-24T15:08:08.872Z,102192.22
2023-05-24T15:10:35.600Z,102242.06
2023-05-24T15:13:03.880Z,102238.41
2023-05-24T15:15:31.356Z,102250.72
2023-05-24T15:17:59.897Z,102254.34
2023-05-24T15:20:26.996Z,102261.47
2023-05-24T15:22:53.984Z,102257.91
2023-05-24T15:25:21.115Z,102256.13
2023-05-24T15:27:48.207Z,102207.25
2023-05-24T15:30:17.275Z,102205.47
2023-05-24T15:32:45.770Z,102201.47
2023-05-24T15:35:12.873Z,102201.06
2023-05-24T15:37:40.486Z,102220.78
2023-05-24T15:40:10.283Z,102218.16
2023-05-24T15:42:37.033Z,102229.25
2023-05-24T15:45:04.019Z,102247.13
2023-05-24T15:47:36.284Z,102251.63
2023-05-24T15:50:04.118Z,102287.19
2023-05-24T15:52:33.671Z,102267.97
2023-05-24T15:55:00.566Z,102269.09
2023-05-24T15:57:27.452Z,102220.88
2023-05-24T15:59:54.179Z,102212.88
2023-05-24T16:02:21.556Z,102212.81
2023-05-24T16:04:48.475Z,102236.84
2023-05-24T16:07:15.576Z,102250.81
2023-05-24T16:09:42.362Z,102254.03
2023-05-24T16:12:10.123Z,102218.03
2023-05-24T16:14:36.889Z,102202.41
2023-05-24T16:17:05.540Z,102218.56
2023-05-24T16:19:32.520Z,102211.78
2023-05-24T16:21:59.246Z,102244.25
2023-05-24T16:24:27.086Z,102224.41
2023-05-24T16:26:53.895Z,102207.16
2023-05-24T16:29:21.354Z,102233.66
2023-05-24T16:31:48.355Z,102232.06
2023-05-24T16:34:16.431Z,102211.25
2023-05-24T16:36:45.781Z,102230.63
2023-05-24T16:39:12.529Z,102213.34
2023-05-24T16:41:41.704Z,102253.13
2023-05-24T16:44:08.578Z,102213.75
2023-05-24T16:46:36.554Z,102232.00
2023-05-24T16:49:03.937Z,102225.38
2023-05-24T16:51:30.653Z,102257.97
2023-05-24T16:53:57.472Z,102275.13
2023-05-24T16:56:24.155Z,102250.81
2023-05-24T16:59:01.550Z,102267.72
2023-05-24T17:01:28.586Z,102270.19
2023-05-24T17:03:55.429Z,102258.69
2023-05-24T17:06:22.411Z,102272.75
2023-05-24T17:08:49.146Z,102261.50
2023-05-24T17:11:17.078Z,102272.63
2023-05-24T17:13:43.886Z,102326.91
2023-05-24T17:16:11.789Z,102359.91
2023-05-24T17:18:38.709Z,102363.91
2023-05-24T17:21:06.774Z,102360.63
2023-05-24T17:23:36.575Z,102359.03
2023-05-24T17:26:04.038Z,102359.69
2023-05-24T17:28:31.109Z,102366.78
2023-05-24T17:31:00.799Z,102367.03
2023-05-24T17:33:29.588Z,102371.09
2023-05-24T17:35:57.137Z,102386.06
2023-05-24T17:38:28.603Z,102379.66
2023-05-24T17:40:59.708Z,102393.75
2023-05-24T17:43:32.740Z,102392.25
2023-05-24T17:46:06.954Z,102400.94
2023-05-24T17:48:36.140Z,102402.47
2023-05-24T17:51:05.838Z,102398.66
2023-05-24T17:53:34.945Z,102402.38
2023-05-24T17:56:02.808Z,102407.19
2023-05-24T17:58:37.223Z,102410.47
2023-05-24T18:01:06.104Z,102408.94
2023-05-24T18:03:37.704Z,102412.88
2023-05-24T18:06:07.049Z,102408.16
2023-05-24T18:08:37.164Z,102413.28
2023-05-24T18:11:08.697Z,102406.91
2023-05-24T18:13:40.505Z,102416.50
2023-05-24T18:16:09.375Z,102417.88
2023-05-24T18:18:37.748Z,102423.44
2023-05-24T18:21:05.422Z,102425.81
2023-05-24T18:23:37.253Z,102425.97
2023-05-24T18:26:08.167Z,102428.34
2023-05-24T18:28:37.656Z,102424.34
2023-05-24T18:31:08.300Z,102430.00
2023-05-24T18:33:35.198Z,102426.38
2023-05-24T18:36:04.517Z,102427.97
2023-05-24T18:38:34.497Z,102434.84
2023-05-24T18:41:03.505Z,102439.28
2023-05-24T18:43:32.362Z,102434.34
2023-05-24T18:45:59.081Z,102442.09
2023-05-24T18:48:26.011Z,102447.25
2023-05-24T18:50:53.477Z,102437.69
2023-05-24T18:53:20.310Z,102447.25
2023-05-24T18:55:49.795Z,102449.88
2023-05-24T18:58:16.503Z,102449.09
2023-05-24T19:00:43.408Z,102446.25
2023-05-24T19:03:12.144Z,102443.22
2023-05-24T19:05:42.590Z,102445.66
2023-05-24T19:08:10.651Z,102451.84
2023-05-24T19:10:37.401Z,102464.91
2023-05-24T19:13:06.173Z,102470.41
2023-05-24T19:15:35.521Z,102463.09
2023-05-24T19:18:02.890Z,102459.94
2023-05-24T19:20:29.739Z,102466.38
2023-05-24T19:22:56.644Z,102452.47
2023-05-24T19:25:23.564Z,102462.25
2023-05-24T19:27:59.246Z,102450.38
2023-05-24T19:30:27.468Z,102456.47
2023-05-24T19:32:54.453Z,102453.03
2023-05-24T19:35:21.296Z,102453.13
2023-05-24T19:37:48.031Z,102462.72
2023-05-24T19:40:14.912Z,102458.66
2023-05-24T19:42:41.670Z,102456.13
2023-05-24T19:45:09.606Z,102452.25
2023-05-24T19:47:36.553Z,102453.31
2023-05-24T19:50:03.652Z,102445.56
2023-05-24T19:52:30.376Z,102445.81
2023-05-24T19:54:57.190Z,102444.41
2023-05-24T19:57:24.913Z,102442.53
2023-05-24T19:59:51.921Z,102444.03
2023-05-24T20:02:21.405Z,102450.16
2023-05-24T20:04:49.078Z,102444.47
2023-05-24T20:07:15.901Z,102440.94
2023-05-24T20:09:45.532Z,102439.50
2023-05-24T20:12:12.408Z,102432.34
2023-05-24T20:14:39.163Z,102439.38
2023-05-24T20:17:05.969Z,102426.63
2023-05-24T20:19:32.741Z,102428.78
2023-05-24T20:21:59.474Z,102419.97
2023-05-24T20:24:26.182Z,102415.66
2023-05-24T20:26:55.802Z,102420.16
2023-05-24T20:29:22.487Z,102412.75
2023-05-24T20:31:49.275Z,102405.09
2023-05-24T20:34:16.031Z,102404.56
2023-05-24T20:36:43.875Z,102395.66
2023-05-24T20:39:10.812Z,102393.22
2023-05-24T20:41:37.539Z,102381.69
2023-05-24T20:44:04.279Z,102369.44
2023-05-24T20:46:33.896Z,102366.31
2023-05-24T20:49:01.061Z,102364.94
2023-05-24T20:51:27.769Z,102357.28
2023-05-24T20:53:55.973Z,102353.97
2023-05-24T20:56:23.208Z,102354.41
2023-05-24T20:58:54.373Z,102346.53
2023-05-24T21:01:21.408Z,102342.28
2023-05-24T21:03:48.361Z,102342.56
2023-05-24T21:06:15.265Z,102337.00
2023-05-24T21:08:42.950Z,102335.41
2023-05-24T21:11:09.713Z,102330.25
2023-05-24T21:13:36.487Z,102320.53
2023-05-24T21:16:03.282Z,102311.19
2023-05-24T21:18:33.391Z,102303.03
2023-05-24T21:21:00.346Z,102295.66
2023-05-24T21:23:27.062Z,102290.09
2023-05-24T21:25:53.792Z,102283.81
2023-05-24T21:28:20.654Z,102278.84
2023-05-24T21:30:47.434Z,102279.94
2023-05-24T21:33:14.194Z,102275.47
2023-05-24T21:35:41.088Z,102269.06
2023-05-24T21:38:07.890Z,102262.13
2023-05-24T21:40:34.671Z,102234.91
2023-05-24T21:43:01.362Z,102223.69
2023-05-24T21:45:28.168Z,102216.41
2023-05-24T21:47:54.910Z,102209.03
2023-05-24T21:50:21.716Z,102201.13
2023-05-24T21:52:50.415Z,102181.56
2023-05-24T21:55:17.316Z,102035.31
2023-05-24T21:57:44.129Z,102022.75
2023-05-24T22:00:14.549Z,102023.09
2023-05-24T22:02:43.253Z,102020.22
2023-05-24T22:05:10.079Z,102011.44
2023-05-24T22:07:37.555Z,102017.66
2023-05-24T22:10:05.708Z,102001.16
2023-05-24T22:12:32.677Z,102003.97
2023-05-24T22:15:01.416Z,101997.03
2023-05-24T22:17:33.415Z,101996.13
2023-05-24T22:20:04.900Z,101983.59
2023-05-24T22:22:31.982Z,101975.25
2023-05-24T22:25:02.200Z,101976.22
2023-05-24T22:27:29.589Z,101976.41
2023-05-24T22:29:56.377Z,101971.03
2023-05-24T22:32:23.229Z,101959.13
2023-05-24T22:34:50.027Z,101985.34
2023-05-24T22:37:17.721Z,101987.19
2023-05-24T22:39:45.444Z,101975.44
2023-05-24T22:42:13.493Z,101967.16
2023-05-24T22:44:40.155Z,101965.88
2023-05-24T22:47:12.015Z,101962.81
2023-05-24T22:49:38.699Z,101961.91
2023-05-24T22:52:06.993Z,101963.84
2023-05-24T22:54:33.672Z,101959.91
2023-05-24T22:57:00.955Z,101960.88
2023-05-24T22:59:28.041Z,101959.13
2023-05-24T23:01:55.690Z,101962.88
2023-05-24T23:04:22.507Z,101963.78
2023-05-24T23:06:53.166Z,101962.44
2023-05-24T23:09:33.847Z,101967.16
2023-05-24T23:12:08.013Z,101970.19
2023-05-24T23:14:39.854Z,101971.22
2023-05-24T23:17:15.815Z,101962.97
2023-05-24T23:19:43.278Z,101974.31
2023-05-24T23:22:13.998Z,101963.16
2023-05-24T23:24:44.455Z,101959.47
2023-05-24T23:27:11.300Z,101963.50
2023-05-24T23:29:40.818Z,101968.75
2023-05-24T23:32:10.164Z,101964.63
2023-05-24T23:34:37.243Z,101967.72
2023-05-24T23:37:05.111Z,101963.78
2023-05-24T23:39:31.995Z,101964.13
2023-05-24T23:41:58.753Z,101970.91
2023-05-24T23:44:25.843Z,101968.06
2023-05-24T23:46:53.655Z,101968.06
2023-05-24T23:49:20.553Z,101958.34
2023-05-24T23:51:47.470Z,101965.81
2023-05-24T23:54:19.032Z,101959.59
2023-05-24T23:56:46.116Z,101963.34
2023-05-24T23:59:15.252Z,101966.56
